Glenfield, North Dakota
Current Conditions -  °F | °C
As of 2:35 AM on Saturday 29 Nov 2014 (Local Time) from K46D Reporting Station
Clear Clear  
Wind Chill:   Ceiling: Unl
Heat Index: 16°   Visibility: 10mi
Dew Point: 16°   Wind: 6mph
Humidity: 100%   Direction: 130°SE
Pressure: 29.42"   Gusts: NA
Location:  47.45°N, 98.57°W
Report Text: K46D 290835Z AUTO 13005KT 10SM CLR M09/M09 A2942 RMK AO2
Loading
Personal Weather Stations






























Interactive Weather Map New forecast layout! Learn more

10-Day Weather Forecast

Advertisements
Track Severe Weather on mobile